Here is the Quick Look data you requested

The Data originates at the National Weather Service, and is made available here by the UAlbany Department of Atmospheric and Environmental Sciences

Surface Observations

KDTW 210353Z 22007KT 9SM FEW240 M01/M02 A3005 RMK AO2 SLP180 T10061017 $=
KDTW 210417Z 22007KT 8SM BKN020 OVC240 01/M01 A3004 RMK AO2 T00111006 $=
KDTW 210453Z 19005KT 7SM OVC015 01/M01 A3004 RMK AO2 SLP179 T00061006 400611006
 $=
KDTW 210553Z 21003KT 7SM OVC015 02/01 A3006 RMK AO2 SLP183 T00170006 10017
 21006 53003 $=
KDTW 210653Z 22006KT 7SM OVC020 02/01 A3006 RMK AO2 SLP184 T00220006 $=
KDTW 210753Z 00000KT 6SM BR OVC020 03/02 A3007 RMK AO2 SLP186 T00280017 $=
KDTW 210853Z 18004KT 5SM BR FEW010 OVC020 02/02 A3006 RMK AO2 SLP185 T00220017
 50002 $=
KDTW 210953Z 19004KT 4SM BR OVC027 02/01 A3006 RMK AO2 SLP186 T00220011 $=
KDTW 211030Z 18004KT 4SM BR FEW004 SCT011 OVC027 02/02 A3007 RMK AO2 T00220017
 $=
KDTW 211053Z 18004KT 3SM BR FEW004 OVC025 02/02 A3007 RMK AO2 TWR VIS 4 SLP188
 T00170017 $=
KDTW 211138Z 18003KT 2 1/2SM BR BKN003 OVC025 02/02 A3008 RMK AO2 TWR VIS 4
 T00220017 $=
KDTW 211153Z 18003KT 1 1/2SM BR BKN003 OVC025 02/02 A3008 RMK AO2 SFC VIS 2 1/2
 SLP192 T00220017 10028 20017 53005 $=
KDTW 211245Z 16004KT 1/2SM R03R/2800V5500FT BR OVC002 02/02 A3007 RMK AO2 SFC
 VIS 1 1/4 T00220017 $=
KDTW 211253Z 15004KT 1/2SM R03R/2200V3000FT BR OVC002 03/02 A3007 RMK AO2 SFC
 VIS 3/4 SLP189 T00280022 $=
KDTW 211259Z 13004KT 1/8SM R03R/2000V2400FT FG OVC002 03/02 A3007 RMK AO2 SFC
 VIS 1/2 T00280022 $=
KDTW 211308Z 00000KT 1/8SM R03R/2000V2200FT FG OVC002 03/02 A3007 RMK AO2 SFC
 VIS 1/2 T00280022 $=
KDTW 211321Z 00000KT 1/16SM R03R/2000V2400FT FG OVC002 03/02 A3007 RMK AO2 SFC
 VIS 1/2 T00280022 $=
KDTW 211343Z 13004KT 1/16SM R03R/2000FT FG OVC002 02/02 A3007 RMK AO2 SFC VIS
 1/2 T00220022 $=
KDTW 211353Z 00000KT 1/16SM R03R/2000V3500FT FG OVC002 03/02 A3006 RMK AO2 SFC
 VIS 1/2 SLP186 T00280022 $=
KDTW 211409Z 09003KT 1/16SM R03R/1600V2000FT FG OVC002 03/02 A3006 RMK AO2 SFC
 VIS 1/2 T00280022 $=
KDTW 211422Z 13005KT 1/16SM R03R/1600V3500FT FG OVC002 03/02 A3006 RMK AO2 SFC
 VIS 1/2 T00280022 $=
KDTW 211453Z 00000KT 1/4SM R03R/4500V5000FT BR OVC002 03/02 A3007 RMK AO2 SFC
 VIS 1 SLP188 T00280022 55001 $=
KDTW 211553Z 21005KT 1/4SM R03R/2600V3500FT BR OVC002 03/03 A3007 RMK AO2 SFC
 VIS 3/4 SLP190 T00280028 $=
KDTW 211630Z 22004KT 1/2SM R03R/5500VP6000FT BR OVC002 04/03 A3007 RMK AO2 SFC
 VIS 1 1/2 T00390033 $=
KDTW 211653Z 00000KT 1 1/4SM BR OVC003 04/03 A3006 RMK AO2 SFC VIS 1 1/2 SLP184
 T00390033 $=
KDTW 211753Z 00000KT 1 1/2SM BR OVC004 04/04 A3003 RMK AO2 SFC VIS 2 1/2 SLP173
 T00440039 10044 20017 58016 $=
KDTW 211853Z 00000KT 1 1/2SM BR OVC005 05/04 A3001 RMK AO2 SFC VIS 3 SLP166
 T00500039 $=
KDTW 211953Z 00000KT 1 1/2SM BR OVC006 05/04 A2999 RMK AO2 SFC VIS 3 SLP162
 T00500039 $=
KDTW 212053Z 08004KT 1 1/2SM BR OVC006 06/04 A3000 RMK AO2 SFC VIS 3 SLP163
 T00560039 55009 $=
KDTW 212153Z 00000KT 1/4SM R03R/4000VP6000FT BR OVC003 04/04 A3003 RMK AO2 SFC
 VIS 1 1/4 SLP173 T00440039 $=
KDTW 212229Z 10004KT 1/4SM R03R/1600V1800FT FG VV002 04/04 A3003 RMK AO2 SFC
 VIS 1/2 T00390039 $=
KDTW 212253Z 13005KT 1/4SM R03R/1400FT FG VV002 04/03 A3003 RMK AO2 SLP174
 T00390033 $=
KDTW 212353Z 00000KT 1/4SM R03R/1200V1600FT FG VV002 04/03 A3003 RMK AO2 SLP174
 T00390033 10056 20033 53001 $=
KDTW 220053Z 08003KT 1/4SM R03R/1200V1400FT FG VV002 03/03 A3003 RMK AO2 SLP175
 T00330033 $=
KDTW 220153Z 08003KT 1/4SM R03R/1200V1400FT FG VV002 03/03 A3003 RMK AO2 SLP173
 T00330033 $=
KDTW 220253Z 11004KT 1/4SM R03R/1800FT FG VV002 03/03 A3002 RMK AO2 SLP171
 T00330033 58003 $=
KDTW 220309Z 11003KT 1/4SM R03R/2000V2400FT FG VV002 03/03 A3002 RMK AO2
 RAB0259E08 P0000 T00330033 $=
KDTW 220353Z 04003KT 1/4SM R03R/2000V2400FT FG VV003 03/03 A3001 RMK AO2 SFC
 VIS 1/2 RAB0259E08 SLP169 P0000 T00330033 $=
KDTW 220401Z 07003KT 1/4SM R03R/2000V2200FT FG VV003 03/03 A3002 RMK AO2 SFC
 VIS 1/2 T00330033 $=
KDTW 220409Z 08003KT 1/4SM R03R/2200V2400FT FG VV003 03/03 A3002 RMK AO2 SFC
 VIS 1/2 T00330033 $=
KDTW 220453Z 09003KT 1/4SM R03R/4000V6000FT -DZ BR VV005 03/03 A3000 RMK AO2
 SFC VIS 3/4 DZB50 SLP164 P0000 T00330033 400560006 $=
KDTW 220521Z 08003KT 1/4SM R03R/4000V5500FT -DZ BR VV003 03/03 A2999 RMK AO2
 SFC VIS 3/4 P0000 T00330033 $=
KDTW 220542Z 10003KT 1/4SM R03R/3500V6000FT -DZ FG VV001 03/03 A2998 RMK AO2
 SFC VIS 1/2 P0000 T00330033 $=
KDTW 220553Z 00000KT 1/4SM R03R/5000V5500FT -DZ FG VV001 03/03 A2998 RMK AO2
 SFC VIS 1/2 SLP157 P0000 60000 T00330033 10039 20033 58014 $=
KDTW 220653Z 06003KT 1/4SM R03R/2600FT -RA FG VV001 03/03 A2997 RMK AO2 SFC VIS
 1/2 DZE53RAB53 SLP152 P0000 T00330033 $=
KDTW 220701Z 06004KT 1/4SM R03R/2600V2800FT -RA FG VV003 03/03 A2996 RMK AO2
 P0001 T00330033 $=
KDTW 220747Z 05004KT 1/4SM R03R/3500V4500FT -RA FG VV001 04/03 A2995 RMK AO2
 SFC VIS 1/2 P0002 $=
KDTW 220753Z 06005KT 1/4SM R03R/3500V4500FT -RA FG VV001 04/03 A2995 RMK AO2
 SFC VIS 1/2 SLP146 P0002 T00390033 $=
KDTW 220839Z 09004KT 1/4SM R03R/2800V3500FT -RA FG VV002 04/04 A2993 RMK AO2
 P0002 T00390039 $=
KDTW 220853Z 11004KT 1/4SM R03R/2800V3000FT -RA FG VV002 04/04 A2993 RMK AO2
 SLP140 P0002 60004 T00390039 57016 $=
KDTW 220937Z 05003KT 1/4SM R03R/3500VP6000FT RA BR VV004 04/04 A2993 RMK AO2
 SFC VIS 3/4 P0008 T00440044 $=
KDTW 220953Z 07004KT 1/4SM R03R/4000V5000FT +RA BR VV004 04/04 A2992 RMK AO2
 SFC VIS 3/4 SLP136 P0012 T00440039 $=
KDTW 221002Z 06005KT 1/2SM R03R/4500VP6000FT RA BR VV004 04/04 A2992 RMK AO2
 SFC VIS 1 P0002 T00440039 $=
KDTW 221013Z 06005KT 3/4SM R03R/6000VP6000FT RA BR VV005 04/04 A2991 RMK AO2
 SFC VIS 1 1/4 P0005 T00440039 $=
KDTW 221023Z 06005KT 1 1/4SM R03R/5000VP6000FT RA BR BKN005 OVC012 04/04 A2990
 RMK AO2 P0006 T00440039 $=
KDTW 221033Z 06005KT 1/2SM R03R/5000VP6000FT RA BR OVC004 04/04 A2990 RMK AO2
 SFC VIS 1 P0007 T00440039 $=
KDTW 221053Z 06005KT 1/2SM R03R/4500VP6000FT -RA BR OVC003 04/04 A2989 RMK AO2
 SFC VIS 1 SLP127 P0008 T00440039 $=
KDTW 221147Z 07003KT 1/4SM R03R/2800V4000FT BR OVC002 04/04 A2988 RMK AO2 SFC
 VIS 1 RAE47 P0001 $=
KDTW 221153Z 06004KT 1/4SM R03R/2400V3500FT BR OVC002 04/04 A2988 RMK AO2 SFC
 VIS 1 RAE47 SLP122 P0001 60025 70025 T00440044 10044 20033 56014 $=
KDTW 221207Z 07004KT 1/4SM R03R/2000V2400FT -RA FG VV001 05/04 A2987 RMK AO2
 SFC VIS 1/2 RAB04 P0000 T00500044 $=
KDTW 221216Z 05004KT 1/4SM R03R/1800V2000FT FG VV001 04/04 A2987 RMK AO2 SFC
 VIS 1/2 RAB04E13 P0000 T00440044 $=
KDTW 221253Z 06004KT 1/8SM R03R/1400V1600FT FG VV001 04/04 A2986 RMK AO2
 RAB04E13 SLP117 P0000 T00440044 $=
KDTW 221353Z 10003KT 1/8SM R03R/1400V1800FT FG VV001 05/05 A2985 RMK AO2 SLP112
 T00500050 $=
KDTW 221402Z 11003KT 1/8SM R03R/1800V2400FT RA FG BKN002 OVC020 05/05 A2985 RMK
 AO2 RAB01 P0002 T00500050 $=
KDTW 221432Z 12006KT 1/8SM R03R/P6000FT -RA BR SCT002 BKN018 OVC035 06/06 A2983
 RMK AO2 SFC VIS 1 3/4 RAB01 P0012 T00610061 $=
KDTW 221443Z 13005KT 2SM BR FEW002 BKN030 OVC080 07/07 A2983 RMK AO2 SFC VIS 3
 RAB01E33 P0012 T00670067 $=
KDTW 221453Z 14007KT 5SM BR FEW002 BKN030 OVC080 07/07 A2983 RMK AO2 RAB01E33
 SLP106 P0012 60012 T00670067 57015 $=
KDTW 221553Z 14004KT 8SM SCT040 BKN070 OVC110 08/07 A2982 RMK AO2 RAB08E20
 SLP101 P0000 T00830072=